sensor_id;sensor_type;location;lat;lon;timestamp;pressure;altitude;pressure_sealevel;temperature;humidity
77112;BME280;66064;50.226;14.344;2023-03-14T00:01:34;97823.84;;;8.75;90.92
77112;BME280;66064;50.226;14.344;2023-03-14T00:04:00;97830.03;;;8.72;91.19
77112;BME280;66064;50.226;14.344;2023-03-14T00:06:26;97829.06;;;8.80;90.65
77112;BME280;66064;50.226;14.344;2023-03-14T00:08:52;97822.84;;;8.82;90.38
77112;BME280;66064;50.226;14.344;2023-03-14T00:11:21;97827.31;;;8.77;91.15
77112;BME280;66064;50.226;14.344;2023-03-14T00:13:48;97830.91;;;8.76;90.96
77112;BME280;66064;50.226;14.344;2023-03-14T00:16:14;97815.16;;;8.58;91.32
77112;BME280;66064;50.226;14.344;2023-03-14T00:18:39;97818.56;;;8.69;91.24
77112;BME280;66064;50.226;14.344;2023-03-14T00:21:07;97802.72;;;8.63;91.12
77112;BME280;66064;50.226;14.344;2023-03-14T00:23:35;97805.44;;;8.57;91.63
77112;BME280;66064;50.226;14.344;2023-03-14T00:26:04;97783.50;;;8.41;92.44
77112;BME280;66064;50.226;14.344;2023-03-14T00:28:30;97797.53;;;8.54;92.62
77112;BME280;66064;50.226;14.344;2023-03-14T00:30:56;97779.00;;;8.48;92.79
77112;BME280;66064;50.226;14.344;2023-03-14T00:33:22;97770.28;;;8.38;92.66
77112;BME280;66064;50.226;14.344;2023-03-14T00:35:56;97760.47;;;8.45;92.86
77112;BME280;66064;50.226;14.344;2023-03-14T00:38:23;97731.38;;;8.41;93.17
77112;BME280;66064;50.226;14.344;2023-03-14T00:40:51;97685.53;;;8.32;93.32
77112;BME280;66064;50.226;14.344;2023-03-14T00:43:18;97641.44;;;8.23;93.50
77112;BME280;66064;50.226;14.344;2023-03-14T00:45:44;97654.56;;;8.35;93.80
77112;BME280;66064;50.226;14.344;2023-03-14T00:48:10;97642.97;;;8.46;92.60
77112;BME280;66064;50.226;14.344;2023-03-14T00:50:36;97639.38;;;8.51;91.88
77112;BME280;66064;50.226;14.344;2023-03-14T00:53:01;97673.63;;;8.68;91.81
77112;BME280;66064;50.226;14.344;2023-03-14T00:55:27;97683.28;;;8.73;91.20
77112;BME280;66064;50.226;14.344;2023-03-14T00:57:53;97654.19;;;8.66;90.99
77112;BME280;66064;50.226;14.344;2023-03-14T01:00:19;97636.66;;;8.56;91.70
77112;BME280;66064;50.226;14.344;2023-03-14T01:02:45;97611.91;;;8.57;92.05
77112;BME280;66064;50.226;14.344;2023-03-14T01:05:11;97597.81;;;8.52;91.88
77112;BME280;66064;50.226;14.344;2023-03-14T01:07:37;97610.22;;;8.50;92.75
77112;BME280;66064;50.226;14.344;2023-03-14T01:10:05;97590.91;;;8.41;93.07
77112;BME280;66064;50.226;14.344;2023-03-14T01:12:31;97564.50;;;8.32;92.72
77112;BME280;66064;50.226;14.344;2023-03-14T01:15:01;97585.66;;;8.35;93.25
77112;BME280;66064;50.226;14.344;2023-03-14T01:17:28;97554.03;;;8.20;93.10
77112;BME280;66064;50.226;14.344;2023-03-14T01:19:54;97566.25;;;8.33;92.51
77112;BME280;66064;50.226;14.344;2023-03-14T01:22:20;97574.94;;;8.45;92.59
77112;BME280;66064;50.226;14.344;2023-03-14T01:24:47;97567.81;;;8.50;92.20
77112;BME280;66064;50.226;14.344;2023-03-14T01:27:13;97601.41;;;8.48;92.39
77112;BME280;66064;50.226;14.344;2023-03-14T01:29:39;97584.78;;;8.36;92.37
77112;BME280;66064;50.226;14.344;2023-03-14T01:32:05;97597.13;;;8.39;92.30
77112;BME280;66064;50.226;14.344;2023-03-14T01:34:31;97584.00;;;8.25;92.63
77112;BME280;66064;50.226;14.344;2023-03-14T01:36:56;97583.25;;;8.13;93.25
77112;BME280;66064;50.226;14.344;2023-03-14T01:39:22;97603.41;;;8.27;92.56
77112;BME280;66064;50.226;14.344;2023-03-14T01:41:50;97591.97;;;8.22;92.85
77112;BME280;66064;50.226;14.344;2023-03-14T01:44:17;97582.31;;;8.18;92.72
77112;BME280;66064;50.226;14.344;2023-03-14T01:46:45;97565.56;;;8.15;93.59
77112;BME280;66064;50.226;14.344;2023-03-14T01:49:26;97569.97;;;8.16;93.62
77112;BME280;66064;50.226;14.344;2023-03-14T01:54:55;97559.38;;;8.14;94.20
77112;BME280;66064;50.226;14.344;2023-03-14T01:57:41;97585.00;;;8.15;93.98
77112;BME280;66064;50.226;14.344;2023-03-14T02:00:12;97569.22;;;8.06;93.88
77112;BME280;66064;50.226;14.344;2023-03-14T02:02:40;97595.59;;;8.14;93.71
77112;BME280;66064;50.226;14.344;2023-03-14T02:05:08;97598.31;;;8.09;93.78
77112;BME280;66064;50.226;14.344;2023-03-14T02:07:43;97608.91;;;8.11;92.64
77112;BME280;66064;50.226;14.344;2023-03-14T02:10:12;97606.19;;;8.15;92.97
77112;BME280;66064;50.226;14.344;2023-03-14T02:12:39;97589.50;;;8.10;93.21
77112;BME280;66064;50.226;14.344;2023-03-14T02:15:06;97609.88;;;8.02;93.64
77112;BME280;66064;50.226;14.344;2023-03-14T02:17:32;97595.75;;;8.01;94.01
77112;BME280;66064;50.226;14.344;2023-03-14T02:20:21;97599.25;;;8.05;94.05
77112;BME280;66064;50.226;14.344;2023-03-14T02:22:51;97605.25;;;8.19;93.85
77112;BME280;66064;50.226;14.344;2023-03-14T02:27:55;97607.09;;;8.13;93.87
77112;BME280;66064;50.226;14.344;2023-03-14T02:30:30;97591.31;;;8.02;93.20
77112;BME280;66064;50.226;14.344;2023-03-14T02:33:05;97604.53;;;8.06;93.23
77112;BME280;66064;50.226;14.344;2023-03-14T02:35:34;97601.94;;;8.00;93.61
77112;BME280;66064;50.226;14.344;2023-03-14T02:40:41;97606.34;;;8.01;93.09
77112;BME280;66064;50.226;14.344;2023-03-14T02:43:07;97602.84;;;7.99;93.71
77112;BME280;66064;50.226;14.344;2023-03-14T02:45:39;97582.59;;;7.94;93.33
77112;BME280;66064;50.226;14.344;2023-03-14T02:48:28;97574.69;;;7.89;93.86
77112;BME280;66064;50.226;14.344;2023-03-14T02:50:57;97563.28;;;7.83;94.43
77112;BME280;66064;50.226;14.344;2023-03-14T02:53:33;97538.69;;;7.75;94.63
77112;BME280;66064;50.226;14.344;2023-03-14T02:56:00;97533.41;;;7.71;94.91
77112;BME280;66064;50.226;14.344;2023-03-14T02:58:26;97530.81;;;7.65;95.17
77112;BME280;66064;50.226;14.344;2023-03-14T03:00:53;97518.47;;;7.64;95.26
77112;BME280;66064;50.226;14.344;2023-03-14T03:03:19;97522.97;;;7.59;95.13
77112;BME280;66064;50.226;14.344;2023-03-14T03:05:50;97523.66;;;7.75;95.28
77112;BME280;66064;50.226;14.344;2023-03-14T03:08:16;97517.56;;;7.65;95.22
77112;BME280;66064;50.226;14.344;2023-03-14T03:10:44;97519.44;;;7.57;94.40
77112;BME280;66064;50.226;14.344;2023-03-14T03:13:10;97531.88;;;7.49;94.84
77112;BME280;66064;50.226;14.344;2023-03-14T03:15:36;97530.19;;;7.42;94.01
77112;BME280;66064;50.226;14.344;2023-03-14T03:18:02;97535.53;;;7.37;94.73
77112;BME280;66064;50.226;14.344;2023-03-14T03:20:28;97539.97;;;7.34;94.43
77112;BME280;66064;50.226;14.344;2023-03-14T03:22:54;97531.13;;;7.35;94.05
77112;BME280;66064;50.226;14.344;2023-03-14T03:25:20;97503.00;;;7.28;94.85
77112;BME280;66064;50.226;14.344;2023-03-14T03:27:46;97506.44;;;7.34;94.34
77112;BME280;66064;50.226;14.344;2023-03-14T03:30:12;97505.56;;;7.34;94.05
77112;BME280;66064;50.226;14.344;2023-03-14T03:32:38;97499.41;;;7.32;94.14
77112;BME280;66064;50.226;14.344;2023-03-14T03:35:04;97487.09;;;7.29;94.70
77112;BME280;66064;50.226;14.344;2023-03-14T03:37:34;97498.53;;;7.31;95.19
77112;BME280;66064;50.226;14.344;2023-03-14T03:40:00;97483.56;;;7.30;95.22
77112;BME280;66064;50.226;14.344;2023-03-14T03:42:29;97485.38;;;7.25;95.48
77112;BME280;66064;50.226;14.344;2023-03-14T03:44:55;97495.06;;;7.28;95.01
77112;BME280;66064;50.226;14.344;2023-03-14T03:47:21;97503.00;;;7.25;95.21
77112;BME280;66064;50.226;14.344;2023-03-14T03:49:47;97499.56;;;7.17;95.21
77112;BME280;66064;50.226;14.344;2023-03-14T03:52:12;97527.78;;;7.16;94.54
77112;BME280;66064;50.226;14.344;2023-03-14T03:54:38;97530.41;;;7.16;94.65
77112;BME280;66064;50.226;14.344;2023-03-14T03:57:04;97519.97;;;7.02;94.59
77112;BME280;66064;50.226;14.344;2023-03-14T03:59:30;97542.75;;;7.16;94.81
77112;BME280;66064;50.226;14.344;2023-03-14T04:01:56;97548.16;;;7.03;95.07
77112;BME280;66064;50.226;14.344;2023-03-14T04:04:21;97552.59;;;7.01;95.38
77112;BME280;66064;50.226;14.344;2023-03-14T04:06:47;97558.75;;;7.00;95.52
77112;BME280;66064;50.226;14.344;2023-03-14T04:09:13;97568.41;;;7.09;96.06
77112;BME280;66064;50.226;14.344;2023-03-14T04:11:39;97548.13;;;7.07;96.73
77112;BME280;66064;50.226;14.344;2023-03-14T04:14:05;97534.03;;;7.08;96.16
77112;BME280;66064;50.226;14.344;2023-03-14T04:16:31;97525.22;;;7.06;95.76
77112;BME280;66064;50.226;14.344;2023-03-14T04:18:57;97545.47;;;7.10;95.87
77112;BME280;66064;50.226;14.344;2023-03-14T04:21:23;97544.59;;;7.08;95.67
77112;BME280;66064;50.226;14.344;2023-03-14T04:23:50;97534.91;;;7.07;95.99
77112;BME280;66064;50.226;14.344;2023-03-14T04:26:16;97516.44;;;7.00;95.75
77112;BME280;66064;50.226;14.344;2023-03-14T04:28:42;97525.22;;;7.06;95.11
77112;BME280;66064;50.226;14.344;2023-03-14T04:31:10;97529.72;;;6.96;95.20
77112;BME280;66064;50.226;14.344;2023-03-14T04:33:36;97520.06;;;6.93;95.02
77112;BME280;66064;50.226;14.344;2023-03-14T04:36:04;97517.44;;;6.86;95.31
77112;BME280;66064;50.226;14.344;2023-03-14T04:38:30;97535.06;;;6.90;95.11
77112;BME280;66064;50.226;14.344;2023-03-14T04:40:56;97528.00;;;6.92;95.29
77112;BME280;66064;50.226;14.344;2023-03-14T04:43:22;97512.03;;;6.99;95.53
77112;BME280;66064;50.226;14.344;2023-03-14T04:45:48;97510.91;;;7.29;96.08
77112;BME280;66064;50.226;14.344;2023-03-14T04:48:14;97505.84;;;7.89;96.25
77112;BME280;66064;50.226;14.344;2023-03-14T04:50:40;97526.88;;;8.03;95.06
77112;BME280;66064;50.226;14.344;2023-03-14T04:53:06;97514.56;;;7.96;94.01
77112;BME280;66064;50.226;14.344;2023-03-14T04:55:32;97524.75;;;8.32;93.06
77112;BME280;66064;50.226;14.344;2023-03-14T04:57:59;97509.50;;;8.50;92.34
77112;BME280;66064;50.226;14.344;2023-03-14T05:00:24;97518.28;;;8.53;92.82
77112;BME280;66064;50.226;14.344;2023-03-14T05:02:51;97532.16;;;8.72;91.36
77112;BME280;66064;50.226;14.344;2023-03-14T05:05:16;97528.31;;;8.91;90.48
77112;BME280;66064;50.226;14.344;2023-03-14T05:07:42;97527.66;;;9.31;88.18
77112;BME280;66064;50.226;14.344;2023-03-14T05:10:09;97516.94;;;9.37;87.83
77112;BME280;66064;50.226;14.344;2023-03-14T05:12:35;97503.75;;;9.31;87.95
77112;BME280;66064;50.226;14.344;2023-03-14T05:15:01;97497.84;;;9.15;88.19
77112;BME280;66064;50.226;14.344;2023-03-14T05:17:27;97468.03;;;8.99;88.22
77112;BME280;66064;50.226;14.344;2023-03-14T05:19:53;97478.72;;;8.95;89.30
77112;BME280;66064;50.226;14.344;2023-03-14T05:22:19;97492.22;;;9.33;86.82
77112;BME280;66064;50.226;14.344;2023-03-14T05:24:45;97477.97;;;9.39;86.97
77112;BME280;66064;50.226;14.344;2023-03-14T05:27:11;97480.59;;;9.40;86.63
77112;BME280;66064;50.226;14.344;2023-03-14T05:29:36;97481.19;;;9.56;85.51
77112;BME280;66064;50.226;14.344;2023-03-14T05:32:02;97468.22;;;9.41;86.24
77112;BME280;66064;50.226;14.344;2023-03-14T05:34:28;97483.34;;;9.34;86.92
77112;BME280;66064;50.226;14.344;2023-03-14T05:36:54;97496.63;;;9.34;86.86
77112;BME280;66064;50.226;14.344;2023-03-14T05:39:22;97495.84;;;9.28;86.90
77112;BME280;66064;50.226;14.344;2023-03-14T05:41:48;97495.81;;;9.31;86.68
77112;BME280;66064;50.226;14.344;2023-03-14T05:44:13;97486.78;;;9.41;85.52
77112;BME280;66064;50.226;14.344;2023-03-14T05:46:39;97479.81;;;9.34;85.93
77112;BME280;66064;50.226;14.344;2023-03-14T05:49:05;97495.41;;;9.54;85.37
77112;BME280;66064;50.226;14.344;2023-03-14T05:51:31;97479.56;;;9.47;85.02
77112;BME280;66064;50.226;14.344;2023-03-14T05:53:57;97487.97;;;9.72;84.16
77112;BME280;66064;50.226;14.344;2023-03-14T05:56:23;97470.94;;;9.82;82.32
77112;BME280;66064;50.226;14.344;2023-03-14T05:58:48;97470.72;;;9.92;81.59
77112;BME280;66064;50.226;14.344;2023-03-14T06:01:14;97483.91;;;9.96;81.09
77112;BME280;66064;50.226;14.344;2023-03-14T06:03:40;97482.34;;;9.88;82.23
77112;BME280;66064;50.226;14.344;2023-03-14T06:06:06;97475.13;;;9.93;81.46
77112;BME280;66064;50.226;14.344;2023-03-14T06:08:32;97482.41;;;9.85;82.71
77112;BME280;66064;50.226;14.344;2023-03-14T06:10:58;97458.44;;;9.88;80.73
77112;BME280;66064;50.226;14.344;2023-03-14T06:13:24;97484.81;;;9.97;81.26
77112;BME280;66064;50.226;14.344;2023-03-14T06:15:50;97453.22;;;9.83;80.63
77112;BME280;66064;50.226;14.344;2023-03-14T06:18:16;97497.84;;;10.07;80.54
77112;BME280;66064;50.226;14.344;2023-03-14T06:20:42;97501.66;;;9.96;80.68
77112;BME280;66064;50.226;14.344;2023-03-14T06:23:08;97494.63;;;9.92;81.25
77112;BME280;66064;50.226;14.344;2023-03-14T06:25:35;97483.94;;;9.95;81.10
77112;BME280;66064;50.226;14.344;2023-03-14T06:28:01;97496.38;;;9.93;81.54
77112;BME280;66064;50.226;14.344;2023-03-14T06:30:27;97495.72;;;9.83;82.10
77112;BME280;66064;50.226;14.344;2023-03-14T06:32:53;97512.31;;;9.93;81.38
77112;BME280;66064;50.226;14.344;2023-03-14T06:35:19;97522.84;;;9.99;81.33
77112;BME280;66064;50.226;14.344;2023-03-14T06:37:45;97522.84;;;9.99;81.15
77112;BME280;66064;50.226;14.344;2023-03-14T06:40:12;97521.09;;;9.98;80.91
77112;BME280;66064;50.226;14.344;2023-03-14T06:42:46;97528.78;;;10.11;80.62
77112;BME280;66064;50.226;14.344;2023-03-14T06:45:13;97521.47;;;10.24;79.70
77112;BME280;66064;50.226;14.344;2023-03-14T06:47:39;97524.72;;;10.38;78.18
77112;BME280;66064;50.226;14.344;2023-03-14T06:50:07;97532.50;;;10.47;78.24
77112;BME280;66064;50.226;14.344;2023-03-14T06:52:33;97534.84;;;10.61;77.44
77112;BME280;66064;50.226;14.344;2023-03-14T06:54:59;97523.78;;;10.79;77.11
77112;BME280;66064;50.226;14.344;2023-03-14T06:57:24;97515.34;;;10.99;75.78
77112;BME280;66064;50.226;14.344;2023-03-14T06:59:50;97531.88;;;11.12;75.29
77112;BME280;66064;50.226;14.344;2023-03-14T07:02:16;97511.88;;;11.31;73.54
77112;BME280;66064;50.226;14.344;2023-03-14T07:04:42;97515.03;;;11.47;73.33
77112;BME280;66064;50.226;14.344;2023-03-14T07:07:08;97508.28;;;11.68;72.28
77112;BME280;66064;50.226;14.344;2023-03-14T07:09:34;97527.75;;;12.02;71.34
77112;BME280;66064;50.226;14.344;2023-03-14T07:12:00;97529.22;;;12.45;69.98
77112;BME280;66064;50.226;14.344;2023-03-14T07:14:26;97514.03;;;12.47;70.00
77112;BME280;66064;50.226;14.344;2023-03-14T07:16:52;97504.41;;;12.41;69.58
77112;BME280;66064;50.226;14.344;2023-03-14T07:19:19;97517.59;;;12.47;68.67
77112;BME280;66064;50.226;14.344;2023-03-14T07:21:45;97506.16;;;12.42;67.97
77112;BME280;66064;50.226;14.344;2023-03-14T07:24:11;97517.94;;;12.65;67.70
77112;BME280;66064;50.226;14.344;2023-03-14T07:26:38;97522.91;;;12.47;67.49
77112;BME280;66064;50.226;14.344;2023-03-14T07:29:04;97512.41;;;12.71;66.88
77112;BME280;66064;50.226;14.344;2023-03-14T07:31:31;97514.50;;;12.89;67.82
77112;BME280;66064;50.226;14.344;2023-03-14T07:33:57;97517.91;;;12.94;65.97
77112;BME280;66064;50.226;14.344;2023-03-14T07:36:23;97500.19;;;12.64;66.77
77112;BME280;66064;50.226;14.344;2023-03-14T07:38:49;97523.63;;;12.52;67.15
77112;BME280;66064;50.226;14.344;2023-03-14T07:41:15;97515.75;;;12.49;67.45
77112;BME280;66064;50.226;14.344;2023-03-14T07:43:41;97525.53;;;12.49;66.40
77112;BME280;66064;50.226;14.344;2023-03-14T07:46:07;97521.28;;;12.42;67.67
77112;BME280;66064;50.226;14.344;2023-03-14T07:48:33;97530.81;;;12.19;66.14
77112;BME280;66064;50.226;14.344;2023-03-14T07:50:59;97538.22;;;12.10;67.29
77112;BME280;66064;50.226;14.344;2023-03-14T07:53:26;97532.94;;;12.08;67.96
77112;BME280;66064;50.226;14.344;2023-03-14T07:55:52;97525.53;;;12.18;68.53
77112;BME280;66064;50.226;14.344;2023-03-14T07:58:19;97526.56;;;12.14;67.80
77112;BME280;66064;50.226;14.344;2023-03-14T08:00:47;97541.25;;;12.29;67.09
77112;BME280;66064;50.226;14.344;2023-03-14T08:03:13;97539.22;;;12.37;67.50
77112;BME280;66064;50.226;14.344;2023-03-14T08:05:39;97536.94;;;12.54;66.74
77112;BME280;66064;50.226;14.344;2023-03-14T08:08:06;97540.31;;;12.60;66.77
77112;BME280;66064;50.226;14.344;2023-03-14T08:10:32;97532.09;;;12.67;65.81
77112;BME280;66064;50.226;14.344;2023-03-14T08:12:59;97530.25;;;12.69;66.68
77112;BME280;66064;50.226;14.344;2023-03-14T08:15:26;97530.66;;;12.84;66.08
77112;BME280;66064;50.226;14.344;2023-03-14T08:17:54;97524.88;;;12.70;65.38
77112;BME280;66064;50.226;14.344;2023-03-14T08:20:23;97524.75;;;12.75;64.18
77112;BME280;66064;50.226;14.344;2023-03-14T08:22:49;97506.06;;;12.75;66.09
77112;BME280;66064;50.226;14.344;2023-03-14T08:25:15;97525.31;;;12.84;65.67
77112;BME280;66064;50.226;14.344;2023-03-14T08:27:42;97527.28;;;12.79;63.46
77112;BME280;66064;50.226;14.344;2023-03-14T08:30:11;97521.91;;;12.81;64.04
77112;BME280;66064;50.226;14.344;2023-03-14T08:32:38;97521.84;;;13.10;65.03
77112;BME280;66064;50.226;14.344;2023-03-14T08:35:05;97515.66;;;13.08;62.79
77112;BME280;66064;50.226;14.344;2023-03-14T08:37:32;97512.13;;;13.08;61.83
77112;BME280;66064;50.226;14.344;2023-03-14T08:39:58;97519.44;;;13.30;62.81
77112;BME280;66064;50.226;14.344;2023-03-14T08:42:24;97526.22;;;13.41;61.54
77112;BME280;66064;50.226;14.344;2023-03-14T08:44:51;97529.59;;;13.46;63.58
77112;BME280;66064;50.226;14.344;2023-03-14T08:47:18;97529.44;;;13.24;60.53
77112;BME280;66064;50.226;14.344;2023-03-14T08:49:44;97522.44;;;13.20;62.30
77112;BME280;66064;50.226;14.344;2023-03-14T08:52:10;97533.00;;;12.95;61.92
77112;BME280;66064;50.226;14.344;2023-03-14T08:54:36;97530.09;;;13.03;61.85
77112;BME280;66064;50.226;14.344;2023-03-14T08:57:02;97535.47;;;13.01;61.56
77112;BME280;66064;50.226;14.344;2023-03-14T08:59:28;97536.72;;;13.19;61.30
77112;BME280;66064;50.226;14.344;2023-03-14T09:01:54;97507.94;;;12.99;60.97
77112;BME280;66064;50.226;14.344;2023-03-14T09:04:20;97532.34;;;12.87;61.34
77112;BME280;66064;50.226;14.344;2023-03-14T09:06:47;97528.03;;;12.83;62.76
77112;BME280;66064;50.226;14.344;2023-03-14T09:09:13;97532.34;;;13.16;61.62
77112;BME280;66064;50.226;14.344;2023-03-14T09:11:39;97528.63;;;12.92;61.83
77112;BME280;66064;50.226;14.344;2023-03-14T09:14:05;97533.44;;;13.37;60.81
77112;BME280;66064;50.226;14.344;2023-03-14T09:16:33;97524.84;;;13.54;59.82
77112;BME280;66064;50.226;14.344;2023-03-14T09:18:59;97549.16;;;13.97;58.85
77112;BME280;66064;50.226;14.344;2023-03-14T09:21:26;97553.34;;;14.06;58.41
77112;BME280;66064;50.226;14.344;2023-03-14T09:23:52;97542.31;;;13.90;56.84
77112;BME280;66064;50.226;14.344;2023-03-14T09:26:19;97544.16;;;14.38;57.13
77112;BME280;66064;50.226;14.344;2023-03-14T09:28:45;97552.16;;;14.38;58.50
77112;BME280;66064;50.226;14.344;2023-03-14T09:31:12;97546.00;;;14.36;57.98
77112;BME280;66064;50.226;14.344;2023-03-14T09:33:38;97532.47;;;14.87;55.60
77112;BME280;66064;50.226;14.344;2023-03-14T09:36:05;97546.63;;;14.67;55.34
77112;BME280;66064;50.226;14.344;2023-03-14T09:38:31;97552.03;;;15.11;54.34
77112;BME280;66064;50.226;14.344;2023-03-14T09:41:00;97566.34;;;14.88;55.07
77112;BME280;66064;50.226;14.344;2023-03-14T09:43:30;97548.25;;;14.23;55.21
77112;BME280;66064;50.226;14.344;2023-03-14T09:45:58;97548.31;;;14.22;56.91
77112;BME280;66064;50.226;14.344;2023-03-14T09:48:30;97531.16;;;14.02;57.79
77112;BME280;66064;50.226;14.344;2023-03-14T09:50:58;97527.66;;;14.00;55.82
77112;BME280;66064;50.226;14.344;2023-03-14T09:53:28;97550.19;;;13.95;57.57
77112;BME280;66064;50.226;14.344;2023-03-14T09:55:58;97548.97;;;14.04;57.96
77112;BME280;66064;50.226;14.344;2023-03-14T09:58:24;97539.59;;;13.92;57.89
77112;BME280;66064;50.226;14.344;2023-03-14T10:00:53;97528.84;;;13.67;58.03
77112;BME280;66064;50.226;14.344;2023-03-14T10:03:32;97537.69;;;13.69;58.54
77112;BME280;66064;50.226;14.344;2023-03-14T10:05:59;97538.28;;;13.52;58.03
77112;BME280;66064;50.226;14.344;2023-03-14T10:08:24;97538.22;;;13.27;58.61
77112;BME280;66064;50.226;14.344;2023-03-14T10:10:51;97546.16;;;13.30;57.94
77112;BME280;66064;50.226;14.344;2023-03-14T10:13:22;97548.00;;;13.28;58.53
77112;BME280;66064;50.226;14.344;2023-03-14T10:16:00;97541.91;;;13.50;57.87
77112;BME280;66064;50.226;14.344;2023-03-14T10:18:29;97524.34;;;13.43;58.29
77112;BME280;66064;50.226;14.344;2023-03-14T10:21:21;97535.56;;;13.27;58.43
77112;BME280;66064;50.226;14.344;2023-03-14T10:23:49;97540.16;;;13.22;58.90
77112;BME280;66064;50.226;14.344;2023-03-14T10:26:17;97524.91;;;12.98;59.01
77112;BME280;66064;50.226;14.344;2023-03-14T10:28:47;97536.13;;;13.09;58.90
77112;BME280;66064;50.226;14.344;2023-03-14T10:31:15;97533.53;;;12.78;60.23
77112;BME280;66064;50.226;14.344;2023-03-14T10:33:41;97518.63;;;12.71;59.50
77112;BME280;66064;50.226;14.344;2023-03-14T10:36:29;97543.19;;;12.82;59.86
77112;BME280;66064;50.226;14.344;2023-03-14T10:44:39;97531.09;;;12.71;59.96
77112;BME280;66064;50.226;14.344;2023-03-14T10:47:05;97534.25;;;12.83;58.85
77112;BME280;66064;50.226;14.344;2023-03-14T10:49:36;97537.06;;;12.79;58.97
77112;BME280;66064;50.226;14.344;2023-03-14T10:54:41;97549.84;;;12.68;59.81
77112;BME280;66064;50.226;14.344;2023-03-14T10:57:10;97536.97;;;12.52;60.49
77112;BME280;66064;50.226;14.344;2023-03-14T10:59:39;97528.50;;;12.68;59.16
77112;BME280;66064;50.226;14.344;2023-03-14T11:02:21;97538.13;;;12.73;59.31
77112;BME280;66064;50.226;14.344;2023-03-14T11:07:44;97527.53;;;12.70;60.54
77112;BME280;66064;50.226;14.344;2023-03-14T11:10:33;97535.38;;;12.76;59.80
77112;BME280;66064;50.226;14.344;2023-03-14T11:31:38;97539.34;;;13.20;59.21
77112;BME280;66064;50.226;14.344;2023-03-14T11:37:00;97535.03;;;12.87;59.17
77112;BME280;66064;50.226;14.344;2023-03-14T11:39:36;97528.78;;;12.88;58.97
77112;BME280;66064;50.226;14.344;2023-03-14T11:42:03;97526.97;;;12.88;59.25
77112;BME280;66064;50.226;14.344;2023-03-14T11:44:37;97504.50;;;12.68;59.47
77112;BME280;66064;50.226;14.344;2023-03-14T11:47:17;97509.16;;;12.89;60.18
77112;BME280;66064;50.226;14.344;2023-03-14T11:52:31;97491.63;;;13.08;58.40
77112;BME280;66064;50.226;14.344;2023-03-14T11:55:09;97517.13;;;13.46;59.52
77112;BME280;66064;50.226;14.344;2023-03-14T11:57:37;97513.03;;;13.07;58.42
77112;BME280;66064;50.226;14.344;2023-03-14T12:00:18;97522.56;;;13.15;58.93
77112;BME280;66064;50.226;14.344;2023-03-14T12:02:59;97525.44;;;13.09;58.78
77112;BME280;66064;50.226;14.344;2023-03-14T12:10:25;97494.72;;;13.75;56.94
77112;BME280;66064;50.226;14.344;2023-03-14T12:12:51;97511.41;;;14.07;56.01
77112;BME280;66064;50.226;14.344;2023-03-14T12:15:20;97509.00;;;13.99;56.06
77112;BME280;66064;50.226;14.344;2023-03-14T12:17:46;97505.38;;;13.77;56.49
77112;BME280;66064;50.226;14.344;2023-03-14T12:20:20;97511.19;;;13.63;56.37
77112;BME280;66064;50.226;14.344;2023-03-14T12:22:54;97504.97;;;14.12;56.73
77112;BME280;66064;50.226;14.344;2023-03-14T12:25:39;97483.97;;;14.01;55.03
77112;BME280;66064;50.226;14.344;2023-03-14T12:28:17;97501.84;;;13.99;55.20
77112;BME280;66064;50.226;14.344;2023-03-14T12:30:45;97494.28;;;13.87;56.11
77112;BME280;66064;50.226;14.344;2023-03-14T12:33:19;97496.38;;;13.53;56.35
77112;BME280;66064;50.226;14.344;2023-03-14T12:35:57;97486.72;;;13.49;56.58
77112;BME280;66064;50.226;14.344;2023-03-14T12:43:32;97467.44;;;13.90;55.32
77112;BME280;66064;50.226;14.344;2023-03-14T12:48:54;97448.03;;;14.32;53.49
77112;BME280;66064;50.226;14.344;2023-03-14T12:51:36;97450.75;;;14.99;52.54
77112;BME280;66064;50.226;14.344;2023-03-14T12:57:06;97435.56;;;15.42;50.16
77112;BME280;66064;50.226;14.344;2023-03-14T13:02:42;97429.34;;;17.68;44.98
77112;BME280;66064;50.226;14.344;2023-03-14T13:05:18;97415.28;;;16.91;46.30
77112;BME280;66064;50.226;14.344;2023-03-14T13:15:40;97411.78;;;16.71;45.53
77112;BME280;66064;50.226;14.344;2023-03-14T13:18:15;97421.47;;;16.93;44.95
77112;BME280;66064;50.226;14.344;2023-03-14T13:20:53;97390.03;;;16.01;47.79
77112;BME280;66064;50.226;14.344;2023-03-14T13:23:27;97420.53;;;16.19;48.06
77112;BME280;66064;50.226;14.344;2023-03-14T13:25:54;97438.53;;;15.14;50.31
77112;BME280;66064;50.226;14.344;2023-03-14T13:28:21;97427.53;;;15.42;49.59
77112;BME280;66064;50.226;14.344;2023-03-14T13:30:49;97431.66;;;15.28;49.70
77112;BME280;66064;50.226;14.344;2023-03-14T13:33:19;97445.75;;;15.12;50.81
77112;BME280;66064;50.226;14.344;2023-03-14T13:35:48;97414.50;;;14.68;50.19
77112;BME280;66064;50.226;14.344;2023-03-14T13:38:35;97446.75;;;14.65;53.02
77112;BME280;66064;50.226;14.344;2023-03-14T13:41:06;97427.25;;;14.62;52.19
77112;BME280;66064;50.226;14.344;2023-03-14T13:43:36;97436.94;;;14.19;52.17
77112;BME280;66064;50.226;14.344;2023-03-14T13:46:14;97447.75;;;14.16;53.33
77112;BME280;66064;50.226;14.344;2023-03-14T13:48:46;97445.81;;;13.96;52.85
77112;BME280;66064;50.226;14.344;2023-03-14T13:51:15;97444.72;;;13.79;53.27
77112;BME280;66064;50.226;14.344;2023-03-14T13:53:50;97448.03;;;13.60;54.76
77112;BME280;66064;50.226;14.344;2023-03-14T13:56:18;97450.41;;;13.68;55.41
77112;BME280;66064;50.226;14.344;2023-03-14T13:58:44;97453.53;;;13.56;55.25
77112;BME280;66064;50.226;14.344;2023-03-14T14:03:49;97448.09;;;13.59;56.40
77112;BME280;66064;50.226;14.344;2023-03-14T14:06:35;97440.38;;;13.50;56.12
77112;BME280;66064;50.226;14.344;2023-03-14T14:09:25;97438.75;;;13.46;56.53
77112;BME280;66064;50.226;14.344;2023-03-14T14:11:55;97434.34;;;13.45;56.36
77112;BME280;66064;50.226;14.344;2023-03-14T14:14:31;97433.53;;;13.43;57.08